UAE12C LFMN-OMDB
Flight info
| Callsign | UAE12C |
|---|---|
| Flight time | N/A |
| Altitude | 39000 |
| Route | SODRI8A/04R SODRI DCT RAPUR DCT RATAP DCT BTA DCT DOKAR DCT SUNEV DCT TAGEL DCT MASOT DCT BELIX DCT SALUN N705 MMA P751 DASUM Y234 FYM M872 BDB Y214 RAPMA DCT KUVSO DCT KATIT DCT PEKEM M628 RIGIL G783 ELUDA/N0493F350 G783 ASPED Q308 KIPOK Q568 IMPED IMPED3C |
| Aircraft | B77W/M-V/N |
Departure
| Time | 2026-05-01 15:03 |
|---|---|
| Airport | Nice-Côte d'Azur Airport (LFMN) |
Arrival
| Time | N/A |
|---|---|
| Airport | Dubai International Airport (OMDB) |
| Time | Latitude | Longitude | Altitude | Speed | Heading |
|---|---|---|---|---|---|
| 2026-05-01 14:15 | 43.65802 | 7.20526 | 28 ft | 0 kts | 333° |
| 2026-05-01 14:51 | 43.65801 | 7.20527 | 27 ft | 1 kts | 333° |
| 2026-05-01 14:51 | 43.65774 | 7.20545 | 27 ft | 2 kts | 333° |
| 2026-05-01 14:52 | 43.65747 | 7.20561 | 26 ft | 2 kts | 351° |
| 2026-05-01 14:52 | 43.65733 | 7.20563 | 26 ft | 2 kts | 3° |
| 2026-05-01 14:52 | 43.65704 | 7.20553 | 26 ft | 2 kts | 28° |
| 2026-05-01 14:53 | 43.65692 | 7.20542 | 25 ft | 2 kts | 40° |
| 2026-05-01 14:53 | 43.65675 | 7.20518 | 25 ft | 0 kts | 44° |
| 2026-05-01 14:57 | 43.65677 | 7.20521 | 25 ft | 1 kts | 45° |
| 2026-05-01 14:58 | 43.65699 | 7.20550 | 26 ft | 0 kts | 46° |
| 2026-05-01 14:58 | 43.65700 | 7.20554 | 25 ft | 0 kts | 61° |
| 2026-05-01 14:58 | 43.65700 | 7.20568 | 25 ft | 3 kts | 110° |
| 2026-05-01 14:58 | 43.65661 | 7.20634 | 25 ft | 12 kts | 139° |
| 2026-05-01 14:59 | 43.65566 | 7.20692 | 23 ft | 18 kts | 168° |
| 2026-05-01 14:59 | 43.65427 | 7.20722 | 22 ft | 21 kts | 171° |
| 2026-05-01 14:59 | 43.65289 | 7.20804 | 22 ft | 22 kts | 171° |
| 2026-05-01 14:59 | 43.65167 | 7.20709 | 21 ft | 21 kts | 222° |
| 2026-05-01 15:00 | 43.64929 | 7.20378 | 18 ft | 26 kts | 225° |
| 2026-05-01 15:00 | 43.64822 | 7.20230 | 16 ft | 21 kts | 224° |
| 2026-05-01 15:00 | 43.64790 | 7.20198 | 16 ft | 0 kts | 205° |
| 2026-05-01 15:01 | 43.64764 | 7.20190 | 16 ft | 7 kts | 179° |
| 2026-05-01 15:01 | 43.64713 | 7.20243 | 17 ft | 11 kts | 106° |
| 2026-05-01 15:02 | 43.64740 | 7.20339 | 18 ft | 11 kts | 46° |
| 2026-05-01 15:02 | 43.64744 | 7.20345 | 18 ft | 0 kts | 44° |
| 2026-05-01 15:02 | 43.64884 | 7.20540 | 18 ft | 69 kts | 46° |
| 2026-05-01 15:02 | 43.65424 | 7.21287 | 22 ft | 149 kts | 44° |
| 2026-05-01 15:03 | 43.66303 | 7.22448 | 255 ft | 189 kts | 43° |
| 2026-05-01 15:03 | 43.67237 | 7.23708 | 1011 ft | 199 kts | 50° |
| 2026-05-01 15:03 | 43.68067 | 7.25300 | 1665 ft | 205 kts | 64° |
| 2026-05-01 15:03 | 43.68365 | 7.26497 | 2091 ft | 202 kts | 83° |
| 2026-05-01 15:04 | 43.68034 | 7.28992 | 2940 ft | 205 kts | 120° |
| 2026-05-01 15:04 | 43.67037 | 7.30395 | 3565 ft | 214 kts | 148° |
| 2026-05-01 15:04 | 43.65651 | 7.31226 | 4180 ft | 220 kts | 156° |
| 2026-05-01 15:04 | 43.64207 | 7.31975 | 4830 ft | 224 kts | 156° |
| 2026-05-01 15:05 | 43.62722 | 7.32741 | 5396 ft | 232 kts | 157° |
| 2026-05-01 15:05 | 43.61190 | 7.33530 | 5992 ft | 238 kts | 157° |
| 2026-05-01 15:05 | 43.59607 | 7.34343 | 6632 ft | 243 kts | 158° |
| 2026-05-01 15:05 | 43.58038 | 7.35139 | 7324 ft | 244 kts | 158° |
| 2026-05-01 15:06 | 43.56452 | 7.35945 | 7958 ft | 247 kts | 158° |
| 2026-05-01 15:06 | 43.54839 | 7.36765 | 8599 ft | 250 kts | 157° |
| 2026-05-01 15:06 | 43.53190 | 7.37602 | 9241 ft | 252 kts | 157° |
| 2026-05-01 15:06 | 43.51563 | 7.38428 | 9849 ft | 255 kts | 157° |
| 2026-05-01 15:07 | 43.49841 | 7.39302 | 10139 ft | 272 kts | 157° |
| 2026-05-01 15:07 | 43.48003 | 7.40235 | 10467 ft | 290 kts | 157° |
| 2026-05-01 15:07 | 43.46047 | 7.41225 | 10761 ft | 307 kts | 157° |
| 2026-05-01 15:07 | 43.43993 | 7.42265 | 11074 ft | 325 kts | 157° |
| 2026-05-01 15:08 | 43.41817 | 7.43365 | 11403 ft | 341 kts | 157° |
| 2026-05-01 15:08 | 43.39555 | 7.44507 | 11735 ft | 356 kts | 157° |
| 2026-05-01 15:08 | 43.37171 | 7.45711 | 12077 ft | 371 kts | 157° |
| 2026-05-01 15:08 | 43.34707 | 7.46953 | 12525 ft | 382 kts | 157° |
| 2026-05-01 15:09 | 43.32218 | 7.48206 | 13172 ft | 386 kts | 157° |
| 2026-05-01 15:09 | 43.29769 | 7.49678 | 13841 ft | 388 kts | 148° |
| 2026-05-01 15:09 | 43.27555 | 7.51767 | 14439 ft | 390 kts | 137° |
| 2026-05-01 15:09 | 43.25670 | 7.54431 | 15123 ft | 390 kts | 125° |
| 2026-05-01 15:10 | 43.24197 | 7.57566 | 15752 ft | 390 kts | 114° |
| 2026-05-01 15:10 | 43.22159 | 7.64418 | 17099 ft | 394 kts | 108° |
| 2026-05-01 15:10 | 43.21172 | 7.67908 | 17759 ft | 397 kts | 109° |
| 2026-05-01 15:11 | 43.20168 | 7.71457 | 18411 ft | 400 kts | 108° |
| 2026-05-01 15:11 | 43.18154 | 7.78565 | 19490 ft | 409 kts | 109° |
| 2026-05-01 15:11 | 43.17119 | 7.82207 | 20033 ft | 413 kts | 109° |
| 2026-05-01 15:12 | 43.16064 | 7.85917 | 20598 ft | 417 kts | 109° |
| 2026-05-01 15:12 | 43.13947 | 7.93341 | 21714 ft | 424 kts | 109° |
| 2026-05-01 15:12 | 43.12873 | 7.97097 | 22230 ft | 428 kts | 109° |
| 2026-05-01 15:13 | 43.09581 | 8.08576 | 23696 ft | 440 kts | 108° |
| 2026-05-01 15:14 | 43.07322 | 8.16426 | 24657 ft | 448 kts | 108° |
| 2026-05-01 15:14 | 43.06189 | 8.20352 | 25112 ft | 451 kts | 108° |
| 2026-05-01 15:14 | 43.03866 | 8.28381 | 25956 ft | 460 kts | 108° |
| 2026-05-01 15:15 | 43.01470 | 8.36563 | 26823 ft | 467 kts | 111° |
| 2026-05-01 15:15 | 42.98483 | 8.44449 | 27587 ft | 476 kts | 115° |
| 2026-05-01 15:16 | 42.95320 | 8.52505 | 28289 ft | 484 kts | 115° |
| 2026-05-01 15:16 | 42.92142 | 8.60581 | 29058 ft | 490 kts | 115° |
| 2026-05-01 15:17 | 42.88888 | 8.68832 | 29794 ft | 495 kts | 116° |
| 2026-05-01 15:18 | 42.83999 | 8.81160 | 31188 ft | 494 kts | 115° |
| 2026-05-01 15:18 | 42.82361 | 8.85280 | 31594 ft | 494 kts | 115° |
| 2026-05-01 15:19 | 42.77465 | 8.97560 | 32821 ft | 494 kts | 116° |
| 2026-05-01 15:19 | 42.74208 | 9.05700 | 33688 ft | 492 kts | 115° |
| 2026-05-01 15:19 | 42.72561 | 9.09806 | 34138 ft | 491 kts | 115° |
| 2026-05-01 15:20 | 42.69288 | 9.17960 | 34253 ft | 494 kts | 115° |
| 2026-05-01 15:20 | 42.67659 | 9.22008 | 34238 ft | 493 kts | 115° |
| 2026-05-01 15:21 | 42.64371 | 9.30166 | 34267 ft | 494 kts | 115° |
| 2026-05-01 15:21 | 42.61089 | 9.38283 | 34263 ft | 493 kts | 115° |
| 2026-05-01 15:22 | 42.58320 | 9.45117 | 34272 ft | 495 kts | 115° |